Conejos, Valles Caldera, New Mexico Weather observations

Data are for 10 minute period ending at time listed.
 Day   Time   Solar   Ave.   Ave.  Ave.  Vector  Max.   Baro.   Total    
  of    of     Rad.   Air    Rel.  Wind   Wind   Wind  Press.  Precip.   
Year   Day            Temp.  Hum.  Speed  Dir.   Gust                    
2017   (MST)  Kw/m2    F      %     mph   deg.    mph    mb.     in.     
-------------------------------------------------------------------------
  49   18:30   0.00   35.3    68    1.1    28     3.0   99999.0    0.00 
  49   18:40   0.00   34.9    66    0.5   112     2.4   99999.0    0.00 
  49   18:50   0.00   34.7    69    1.7   152     4.2   99999.0    0.00 
  49   19:00   0.00   34.6    63    1.6   133     4.8   99999.0    0.00 
  49   19:10   0.00   34.8    61    1.7   142     6.0   99999.0    0.00 
  49   19:20   0.00   34.7    57    0.5    83     1.8   99999.0    0.00 
  49   19:30   0.00   34.8    60    1.5   163     3.6   99999.0    0.00 
  49   19:40   0.00   35.1    58    1.0   144     3.6   99999.0    0.00 
  49   19:50   0.00   34.8    60    0.3   147     1.8   99999.0    0.00 
  49   20:00   0.00   34.5    63    0.8   143     1.8   99999.0    0.00 
  49   20:10   0.00   34.3    63    1.3   131     4.2   99999.0    0.00 
  49   20:20   0.00   34.6    61    1.4   128     3.6   99999.0    0.00 
  49   20:30   0.00   34.5    61    0.9   148     2.4   99999.0    0.00 
  49   20:40   0.00   33.6    64    1.7   146     3.0   99999.0    0.00 
  49   20:50   0.00   33.2    64    1.6   144     3.6   99999.0    0.00 
  49   21:00   0.00   33.2    64    2.0   134     7.2   99999.0    0.00 
  49   21:10   0.00   33.1    67    1.7   120     3.0   99999.0    0.00 
  49   21:20   0.00   32.4    68    1.4   128     2.4   99999.0    0.00 
  49   21:30   0.00   31.8    69    1.7   142     3.0   99999.0    0.00 
  49   21:40   0.00   31.4    68    2.1   144     3.6   99999.0    0.00 
  49   21:50   0.00   32.2    64    2.4   141     6.0   99999.0    0.00 
  49   22:00   0.00   33.0    61    2.3   144     4.8   99999.0    0.00 
  49   22:10   0.00   32.9    60    2.1   146     3.0   99999.0    0.00 
  49   22:20   0.00   31.9    63    2.3   142     4.8   99999.0    0.00 
  49   22:30   0.00   32.7    59    2.0   136     4.8   99999.0    0.00 
  49   22:40   0.00   32.2    60    1.6   134     3.6   99999.0    0.00 
  49   22:50   0.00   31.3    66    0.4   126     1.8   99999.0    0.00 
  49   23:00   0.00   30.9    65    0.3   170     2.4   99999.0    0.00 
  49   23:10   0.00   30.4    65    1.2   141     2.4   99999.0    0.00 
  49   23:20   0.00   30.3    63    1.2   151     2.7   99999.0    0.00 
  49   23:30   0.00   30.1    65    1.7   158     3.0   99999.0    0.00 
  49   23:40   0.00   30.6    63    1.3   152     4.2   99999.0    0.00 
  49   23:50   0.00   30.5    64    1.8   164     3.0   99999.0    0.00 
  50    0:00   0.00   31.8    62    2.2   164     3.6   99999.0    0.00 
  50    0:10   0.00   33.5    57    2.7   165     4.8   99999.0    0.00 
  50    0:20   0.00   34.4    54    2.8   166     5.4   99999.0    0.00 
  50    0:30   0.00   34.9    52    2.5   160     4.8   99999.0    0.00 
  50    0:40   0.00   35.0    54    3.0   154     6.6   99999.0    0.00 
  50    0:50   0.00   35.1    54    2.0   160     4.2   99999.0    0.00 
  50    1:00   0.00   35.0    54    2.1   161     3.0   99999.0    0.00 
  50    1:10   0.00   35.5    54    2.4   161     4.2   99999.0    0.00 
  50    1:20   0.00   35.4    55    3.0   163     6.6   99999.0    0.00 
  50    1:30   0.00   35.3    56    2.6   156     4.8   99999.0    0.00 
  50    1:40   0.00   35.0    58    2.4   160     4.8   99999.0    0.00 
  50    1:50   0.00   34.8    58    2.0   155     4.2   99999.0    0.00 
  50    2:00   0.00   34.5    60    2.1   166     3.6   99999.0    0.00 
  50    2:10   0.00   34.8    58    2.9   138     7.2   99999.0    0.00 
  50    2:20   0.00   35.0    58    3.3   154     9.0   99999.0    0.00 
  50    2:30   0.00   36.0    56    3.1   158     7.8   99999.0    0.00 
  50    2:40   0.00   35.9    57    2.8   148     5.7   99999.0    0.00 
  50    2:50   0.00   35.4    59    2.5   148     4.8   99999.0    0.00 
  50    3:00   0.00   35.9    59    3.6   158     9.0   99999.0    0.00 
  50    3:10   0.00   36.2    58    3.1   155     9.6   99999.0    0.00 
  50    3:20   0.00   36.4    58    2.9   170     6.6   99999.0    0.00 
  50    3:30   0.00   36.2    59    2.4   166     4.8   99999.0    0.00 
  50    3:40   0.00   35.8    59    2.9   170     6.0   99999.0    0.00 
  50    3:50   0.00   35.6    60    3.2   169     7.2   99999.0    0.00 
  50    4:00   0.00   35.1    62    3.0   153     7.8   99999.0    0.00 
  50    4:10   0.00   34.5    64    3.6   163    10.2   99999.0    0.00 
  50    4:20   0.00   33.3    69    4.3   166    11.9   99999.0    0.00 
  50    4:30   0.00   32.1    78    2.5   161     7.2   99999.0    0.00 
  50    4:40   0.00   30.9    85    1.6   168     4.8   99999.0    0.00 
  50    4:50   0.00   30.4    89    1.3   163     3.6   99999.0    0.00 
  50    5:00   0.00   30.1    91    1.6   180     3.0   99999.0    0.00 
  50    5:10   0.00   29.8    93    0.9     1     3.0   99999.0    0.00 
  50    5:20   0.00   29.5    94    1.2   270     4.2   99999.0    0.00 
  50    5:30   0.00   29.4    96    1.1   170     3.0   99999.0    0.00 
  50    5:40   0.00   29.3    96    1.0   212     3.0   99999.0    0.00 
  50    5:50   0.00   29.3    97    1.1   166     4.2   99999.0    0.00 
  50    6:00   0.00   29.2    97    1.0   160     3.6   99999.0    0.00 
  50    6:10   0.00   29.1    97    1.3   144     4.8   99999.0    0.00 
  50    6:20   0.00   29.0    97    0.3   190     3.0   99999.0    0.00 
  50    6:30   0.00   29.0    97    0.7   162     2.4   99999.0    0.00 
  50    6:40   0.00   29.0    98    0.0     0     0.0   99999.0    0.00 
  50    6:50   0.00   29.0    98    0.6    27     2.4   99999.0    0.01 
  50    7:00   0.00   28.7    98    1.7     9     3.0   99999.0    0.02 
  50    7:10   0.00   28.6    98    0.8    19     2.4   99999.0    0.03 
  50    7:20   0.00   28.6    98    0.9   243     2.4   99999.0    0.02 
  50    7:30   0.01   28.8    98    1.5   316     3.0   99999.0    0.00 
  50    7:40   0.03   28.8    97    0.6   171     2.7   99999.0    0.00 
  50    7:50   0.04   29.0    97    0.3   123     1.8   99999.0    0.00 
  50    8:00   0.04   29.3    96    1.7   177     4.8   99999.0    0.00 
  50    8:10   0.06   29.9    94    2.8   167     5.4   99999.0    0.00 
  50    8:20   0.08   30.5    92    2.2   156     5.1   99999.0    0.00 
  50    8:30   0.06   30.8    90    2.7   163     6.6   99999.0    0.00 
  50    8:40   0.03   30.2    93    2.1   165     4.5   99999.0    0.00 
  50    8:50   0.03   29.2    95    3.1   181     9.0   99999.0    0.00 
  50    9:00   0.02   28.9    97    2.1   201     7.8   99999.0    0.00 
  50    9:10   0.03   29.0    98    2.4   155     7.2   99999.0    0.00 
  50    9:20   0.05   29.2    98    3.1   163     6.0   99999.0    0.00 
  50    9:30   0.04   29.4    98    2.7   165     6.0   99999.0    0.00 
  50    9:40   0.04   29.6    98    2.9   166     6.0   99999.0    0.00 
  50    9:50   0.05   30.1    98    1.9   158     6.6   99999.0    0.00 
  50   10:00   0.03   30.0    97    2.0   162     6.6   99999.0    0.05 
  50   10:10   0.03   29.8    97    2.2   180     5.4   99999.0    0.07 
  50   10:20   0.02   29.8    97    1.1   171     4.2   99999.0    0.00 
  50   10:30   0.03   29.7    97    1.3   173     6.0   99999.0    0.00 
  50   10:40   0.03   30.1    98    1.8   156     6.0   99999.0    0.00 
  50   10:50   0.04   30.1    97    1.9   166     4.8   99999.0    0.00 
  50   11:00   0.09   30.7    97    1.4   324     4.2   99999.0    0.00 
  50   11:10   0.08   31.1    96    1.9     2     5.4   99999.0    0.00 
  50   11:20   0.05   30.1    95    2.2     7     3.6   99999.0    0.00 
  50   11:30   0.07   30.3    97    1.5    61     3.0   99999.0    0.00 
  50   11:40   0.14   31.3    97    1.5    61     4.2   99999.0    0.00 
  50   11:50   0.15   31.7    94    2.0   241     4.2   99999.0    0.00 
  50   12:00   0.22   32.5    92    1.7     6     3.0   99999.0    0.00 
  50   12:10   0.27   33.4    87    2.0     1     4.2   99999.0    0.01 
  50   12:20   0.29   32.9    83    2.2     4     5.4   99999.0    0.00 
  50   12:30   0.17   32.8    87    1.8   348     3.0   99999.0    0.00 
  50   12:40   0.38   32.8    88    2.6   192     6.0   99999.0    0.00 
  50   12:50   0.44   34.9    82    2.4   335     4.8   99999.0    0.00 
  50   13:00   0.11   32.9    84    1.6   218     6.6   99999.0    0.00 
  50   13:10   0.10   30.9    90    3.5   343     7.2   99999.0    0.01 
  50   13:20   0.21   30.0    91    3.7   352     7.2   99999.0    0.01 
  50   13:30   0.19   29.8    89    2.9   337     4.8   99999.0    0.01 
  50   13:40   0.33   31.1    86    2.1   319     4.8   99999.0    0.00 
  50   13:50   0.21   32.3    84    2.1   345     4.8   99999.0    0.01 
  50   14:00   0.21   32.9    84    1.8   320     3.6   99999.0    0.00 
  50   14:10   0.14   32.8    83    2.3   336     5.4   99999.0    0.00 
  50   14:20   0.12   32.4    82    3.4   325     6.6   99999.0    0.00 
  50   14:30   0.14   32.4    79    3.7   329     8.4   99999.0    0.01 
  50   14:40   0.13   32.6    79    4.1   347     6.6   99999.0    0.00 
  50   14:50   0.08   32.4    79    3.7   352     7.2   99999.0    0.00 
  50   15:00   0.11   31.5    80    4.6   339     7.8   99999.0    0.00 
  50   15:10   0.17   32.1    75    4.3   352    10.2   99999.0    0.00 
  50   15:20   0.12   32.5    75    4.0   347     7.8   99999.0    0.00 
  50   15:30   0.08   32.8    74    3.1   338     6.0   99999.0    0.00 
  50   15:40   0.04   32.2    74    3.4   345     6.0   99999.0    0.01 
  50   15:50   0.05   32.0    78    3.4   333     6.6   99999.0    0.00 
  50   16:00   0.05   31.8    88    2.1    25     4.8   99999.0    0.00 
  50   16:10   0.11   31.7    90    1.9    99     4.2   99999.0    0.00 
  50   16:20   0.09   32.2    89    1.7    49     3.0   99999.0    0.00 
  50   16:30   0.06   31.7    89    2.3   242     4.8   99999.0    0.00 
  50   16:40   0.03   31.3    89    1.8   348     4.2   99999.0    0.00 
  50   16:50   0.02   30.7    91    2.1   121     5.4   99999.0    0.00 
  50   17:00   0.07   29.9    93    3.5     8     6.6   99999.0    0.00 
  50   17:10   0.03   29.2    94    0.0     0     0.0   99999.0    0.00 
  50   17:20   0.01   29.1    92    0.0     0     0.0   99999.0    0.01 
  50   17:30   0.01   29.3    83    0.0     0     0.0   99999.0    0.00 
  50   17:40   0.01   29.4    83    0.0     0     0.0   99999.0    0.00 
  50   17:50   0.00   28.3    91    0.0     0     0.0   99999.0    0.00 
  50   18:00   0.00   27.8    94    0.0     0     0.0   99999.0    0.00 
  50   18:10   0.00   28.0    92    0.0     0     0.0   99999.0    0.00 
  50   18:20   0.00   28.2    89    0.0     0     0.0   99999.0    0.00 

Return to Conejos, Valles Caldera graphs page.


Western Regional Climate Center,wrcc@dri.edu